SPNCB ENBR-EPGD
Flight info
| Callsign | SPNCB |
|---|---|
| Flight time | N/A |
| Altitude | 17000 |
| Route | TINIG2C TINIG DCT ULMUG DCT REPKU DCT PENOR DCT MOTAD N133 DOMAG T240 OGDAV OGDAV5R |
| Aircraft | B58/L-SDFGY/C |
Departure
| Time | 2026-05-06 19:48 |
|---|---|
| Airport | Bergen Airport, Flesland (ENBR) |
Arrival
| Time | N/A |
|---|---|
| Airport | Gdańsk Lech Wałęsa Airport (EPGD) |
| Time | Latitude | Longitude | Altitude | Speed | Heading |
|---|---|---|---|---|---|
| 2026-05-06 18:57 | 60.28978 | 5.22788 | 169 ft | 0 kts | 211° |
| 2026-05-06 19:27 | 60.28977 | 5.22787 | 169 ft | 0 kts | 223° |
| 2026-05-06 19:27 | 60.28982 | 5.22777 | 169 ft | 2 kts | 14° |
| 2026-05-06 19:27 | 60.28984 | 5.22779 | 169 ft | 0 kts | 40° |
| 2026-05-06 19:28 | 60.28989 | 5.22790 | 169 ft | 3 kts | 49° |
| 2026-05-06 19:28 | 60.29031 | 5.22838 | 169 ft | 9 kts | 349° |
| 2026-05-06 19:28 | 60.29051 | 5.22758 | 169 ft | 6 kts | 283° |
| 2026-05-06 19:29 | 60.29054 | 5.22726 | 169 ft | 3 kts | 278° |
| 2026-05-06 19:29 | 60.29052 | 5.22642 | 169 ft | 8 kts | 259° |
| 2026-05-06 19:29 | 60.29041 | 5.22517 | 169 ft | 9 kts | 261° |
| 2026-05-06 19:29 | 60.29039 | 5.22387 | 169 ft | 9 kts | 301° |
| 2026-05-06 19:30 | 60.29032 | 5.22339 | 169 ft | 1 kts | 240° |
| 2026-05-06 19:30 | 60.29036 | 5.22327 | 169 ft | 2 kts | 349° |
| 2026-05-06 19:30 | 60.29057 | 5.22297 | 169 ft | 4 kts | 267° |
| 2026-05-06 19:30 | 60.29046 | 5.22278 | 169 ft | 3 kts | 193° |
| 2026-05-06 19:31 | 60.29041 | 5.22270 | 169 ft | 1 kts | 262° |
| 2026-05-06 19:31 | 60.29056 | 5.22255 | 169 ft | 4 kts | 28° |
| 2026-05-06 19:31 | 60.29120 | 5.22293 | 169 ft | 7 kts | 13° |
| 2026-05-06 19:32 | 60.29173 | 5.22316 | 169 ft | 8 kts | 350° |
| 2026-05-06 19:32 | 60.29246 | 5.22291 | 169 ft | 11 kts | 349° |
| 2026-05-06 19:32 | 60.29332 | 5.22260 | 169 ft | 13 kts | 351° |
| 2026-05-06 19:32 | 60.29428 | 5.22231 | 169 ft | 14 kts | 351° |
| 2026-05-06 19:33 | 60.29510 | 5.22202 | 169 ft | 12 kts | 350° |
| 2026-05-06 19:33 | 60.29602 | 5.22170 | 169 ft | 12 kts | 350° |
| 2026-05-06 19:33 | 60.29683 | 5.22144 | 169 ft | 11 kts | 351° |
| 2026-05-06 19:33 | 60.29722 | 5.22124 | 169 ft | 3 kts | 325° |
| 2026-05-06 19:34 | 60.29736 | 5.22067 | 169 ft | 5 kts | 270° |
| 2026-05-06 19:34 | 60.29724 | 5.21935 | 169 ft | 13 kts | 259° |
| 2026-05-06 19:34 | 60.29719 | 5.21881 | 169 ft | 1 kts | 259° |
| 2026-05-06 19:34 | 60.29718 | 5.21877 | 169 ft | 0 kts | 259° |
| 2026-05-06 19:37 | 60.29718 | 5.21875 | 169 ft | 1 kts | 259° |
| 2026-05-06 19:37 | 60.29713 | 5.21819 | 169 ft | 6 kts | 263° |
| 2026-05-06 19:37 | 60.29713 | 5.21742 | 169 ft | 9 kts | 285° |
| 2026-05-06 19:38 | 60.29827 | 5.21648 | 169 ft | 18 kts | 349° |
| 2026-05-06 19:38 | 60.29888 | 5.21638 | 169 ft | 6 kts | 347° |
| 2026-05-06 19:38 | 60.29973 | 5.21607 | 169 ft | 21 kts | 351° |
| 2026-05-06 19:38 | 60.30050 | 5.21763 | 169 ft | 20 kts | 71° |
| 2026-05-06 19:39 | 60.30055 | 5.21801 | 169 ft | 0 kts | 99° |
| 2026-05-06 19:39 | 60.30055 | 5.21802 | 169 ft | 0 kts | 99° |
| 2026-05-06 19:42 | 60.30054 | 5.21808 | 169 ft | 1 kts | 96° |
| 2026-05-06 19:42 | 60.30063 | 5.21851 | 169 ft | 5 kts | 42° |
| 2026-05-06 19:42 | 60.30107 | 5.21877 | 169 ft | 8 kts | 351° |
| 2026-05-06 19:42 | 60.30172 | 5.21854 | 169 ft | 10 kts | 349° |
| 2026-05-06 19:43 | 60.30248 | 5.21829 | 169 ft | 13 kts | 352° |
| 2026-05-06 19:43 | 60.30362 | 5.21789 | 169 ft | 18 kts | 350° |
| 2026-05-06 19:43 | 60.30486 | 5.21746 | 169 ft | 13 kts | 350° |
| 2026-05-06 19:43 | 60.30601 | 5.21710 | 169 ft | 19 kts | 353° |
| 2026-05-06 19:44 | 60.30671 | 5.21609 | 169 ft | 9 kts | 266° |
| 2026-05-06 19:44 | 60.30667 | 5.21559 | 169 ft | 3 kts | 258° |
| 2026-05-06 19:44 | 60.30654 | 5.21430 | 169 ft | 14 kts | 253° |
| 2026-05-06 19:44 | 60.30610 | 5.21388 | 169 ft | 0 kts | 170° |
| 2026-05-06 19:45 | 60.30602 | 5.21391 | 169 ft | 9 kts | 170° |
| 2026-05-06 19:45 | 60.30381 | 5.21462 | 169 ft | 7 kts | 169° |
| 2026-05-06 19:46 | 60.30380 | 5.21463 | 169 ft | 0 kts | 170° |
| 2026-05-06 19:47 | 60.30376 | 5.21464 | 169 ft | 0 kts | 170° |
| 2026-05-06 19:47 | 60.30191 | 5.21512 | 169 ft | 65 kts | 173° |
| 2026-05-06 19:47 | 60.29562 | 5.21756 | 170 ft | 112 kts | 170° |
| 2026-05-06 19:48 | 60.28768 | 5.22016 | 358 ft | 115 kts | 170° |
| 2026-05-06 19:48 | 60.27967 | 5.22345 | 619 ft | 119 kts | 168° |
| 2026-05-06 19:48 | 60.27190 | 5.22825 | 909 ft | 122 kts | 162° |
| 2026-05-06 19:48 | 60.26392 | 5.23393 | 1190 ft | 121 kts | 163° |
| 2026-05-06 19:49 | 60.25569 | 5.24005 | 1389 ft | 127 kts | 162° |
| 2026-05-06 19:49 | 60.24810 | 5.24711 | 1559 ft | 136 kts | 167° |
| 2026-05-06 19:49 | 60.23768 | 5.24030 | 885 ft | 160 kts | 198° |
| 2026-05-06 19:49 | 60.22739 | 5.23391 | 997 ft | 148 kts | 187° |
| 2026-05-06 19:50 | 60.21744 | 5.23634 | 1167 ft | 145 kts | 168° |
| 2026-05-06 19:50 | 60.20785 | 5.24342 | 1294 ft | 145 kts | 153° |
| 2026-05-06 19:50 | 60.19932 | 5.25239 | 1530 ft | 139 kts | 159° |
| 2026-05-06 19:50 | 60.19063 | 5.25923 | 1727 ft | 136 kts | 163° |
| 2026-05-06 19:51 | 60.18114 | 5.26608 | 1666 ft | 151 kts | 162° |
| 2026-05-06 19:51 | 60.17157 | 5.27377 | 1817 ft | 145 kts | 159° |
| 2026-05-06 19:51 | 60.16184 | 5.28036 | 1752 ft | 153 kts | 169° |
| 2026-05-06 19:51 | 60.15120 | 5.28483 | 1600 ft | 160 kts | 171° |
| 2026-05-06 19:52 | 60.14106 | 5.28883 | 1869 ft | 140 kts | 170° |
| 2026-05-06 19:52 | 60.13117 | 5.29358 | 1687 ft | 167 kts | 169° |
| 2026-05-06 19:52 | 60.11959 | 5.29908 | 1713 ft | 174 kts | 168° |
| 2026-05-06 19:52 | 60.10765 | 5.30518 | 1778 ft | 174 kts | 167° |
| 2026-05-06 19:53 | 60.09623 | 5.31143 | 1983 ft | 170 kts | 166° |
| 2026-05-06 19:53 | 60.08524 | 5.31815 | 2160 ft | 165 kts | 169° |
| 2026-05-06 19:53 | 60.07389 | 5.32498 | 2167 ft | 176 kts | 153° |
| 2026-05-06 19:53 | 60.06457 | 5.34094 | 2303 ft | 175 kts | 124° |
| 2026-05-06 19:54 | 60.05922 | 5.36284 | 2495 ft | 171 kts | 118° |
| 2026-05-06 19:54 | 60.05435 | 5.38336 | 2869 ft | 159 kts | 118° |
| 2026-05-06 19:54 | 60.04982 | 5.40316 | 3092 ft | 158 kts | 119° |
| 2026-05-06 19:54 | 60.04461 | 5.42339 | 3174 ft | 167 kts | 121° |
| 2026-05-06 19:55 | 60.03983 | 5.44344 | 3536 ft | 154 kts | 118° |
| 2026-05-06 19:55 | 60.03518 | 5.46340 | 3619 ft | 166 kts | 116° |
| 2026-05-06 19:55 | 60.02976 | 5.48475 | 3685 ft | 172 kts | 119° |
| 2026-05-06 19:55 | 60.02556 | 5.50563 | 4156 ft | 152 kts | 116° |
| 2026-05-06 19:56 | 60.02064 | 5.52587 | 4032 ft | 178 kts | 116° |
| 2026-05-06 19:56 | 60.01607 | 5.54926 | 4164 ft | 175 kts | 114° |
| 2026-05-06 19:56 | 60.01134 | 5.57012 | 4552 ft | 161 kts | 118° |
| 2026-05-06 19:56 | 60.00627 | 5.59109 | 4501 ft | 178 kts | 117° |
| 2026-05-06 19:57 | 60.00095 | 5.61330 | 4911 ft | 159 kts | 117° |
| 2026-05-06 19:57 | 59.98445 | 5.68880 | 7152 ft | 156 kts | 119° |
| 2026-05-06 19:57 | 59.98001 | 5.70988 | 7200 ft | 162 kts | 123° |
| 2026-05-06 19:57 | 59.97571 | 5.72873 | 7619 ft | 146 kts | 123° |
| 2026-05-06 19:58 | 59.97120 | 5.74861 | 7545 ft | 165 kts | 122° |
| 2026-05-06 19:58 | 59.96594 | 5.76828 | 7830 ft | 151 kts | 128° |
| 2026-05-06 19:58 | 59.96140 | 5.78711 | 7999 ft | 158 kts | 121° |
| 2026-05-06 19:58 | 59.95690 | 5.80848 | 7974 ft | 169 kts | 121° |
| 2026-05-06 19:59 | 59.95290 | 5.82930 | 8301 ft | 157 kts | 118° |
| 2026-05-06 19:59 | 59.94952 | 5.84915 | 8621 ft | 147 kts | 117° |
| 2026-05-06 19:59 | 59.94644 | 5.86805 | 8913 ft | 140 kts | 117° |
| 2026-05-06 19:59 | 59.94362 | 5.88618 | 9168 ft | 135 kts | 119° |
| 2026-05-06 20:00 | 59.94097 | 5.90405 | 9399 ft | 133 kts | 120° |
| 2026-05-06 20:00 | 59.93858 | 5.92126 | 9669 ft | 127 kts | 119° |
| 2026-05-06 20:00 | 59.93626 | 5.93843 | 9850 ft | 129 kts | 118° |
| 2026-05-06 20:00 | 59.93393 | 5.95594 | 10021 ft | 132 kts | 118° |
| 2026-05-06 20:01 | 59.93164 | 5.97363 | 10232 ft | 131 kts | 118° |
| 2026-05-06 20:01 | 59.92944 | 5.99125 | 10425 ft | 131 kts | 118° |
| 2026-05-06 20:01 | 59.92732 | 6.00882 | 10621 ft | 130 kts | 118° |
| 2026-05-06 20:01 | 59.92533 | 6.02616 | 10828 ft | 128 kts | 118° |
| 2026-05-06 20:02 | 59.92342 | 6.04357 | 11014 ft | 128 kts | 118° |
| 2026-05-06 20:02 | 59.92160 | 6.06086 | 11178 ft | 129 kts | 117° |
| 2026-05-06 20:02 | 59.91977 | 6.07846 | 11343 ft | 130 kts | 117° |
| 2026-05-06 20:02 | 59.91806 | 6.09596 | 11522 ft | 129 kts | 117° |
| 2026-05-06 20:03 | 59.91639 | 6.11361 | 11693 ft | 129 kts | 117° |
| 2026-05-06 20:03 | 59.91482 | 6.13123 | 11862 ft | 128 kts | 117° |
| 2026-05-06 20:03 | 59.91332 | 6.14883 | 12019 ft | 129 kts | 116° |
| 2026-05-06 20:03 | 59.91188 | 6.16655 | 12180 ft | 129 kts | 116° |
| 2026-05-06 20:04 | 59.91052 | 6.18417 | 12327 ft | 130 kts | 116° |
| 2026-05-06 20:04 | 59.90921 | 6.20204 | 12479 ft | 130 kts | 115° |
| 2026-05-06 20:04 | 59.90806 | 6.21985 | 12623 ft | 131 kts | 114° |
| 2026-05-06 20:04 | 59.90694 | 6.23788 | 12771 ft | 130 kts | 114° |
| 2026-05-06 20:05 | 59.90586 | 6.25581 | 12909 ft | 131 kts | 114° |
| 2026-05-06 20:05 | 59.90483 | 6.27395 | 13052 ft | 132 kts | 112° |
| 2026-05-06 20:05 | 59.90435 | 6.29228 | 13177 ft | 137 kts | 103° |
| 2026-05-06 20:05 | 59.90470 | 6.31141 | 13317 ft | 136 kts | 105° |
| 2026-05-06 20:06 | 59.90466 | 6.33007 | 13448 ft | 135 kts | 106° |
| 2026-05-06 20:06 | 59.90498 | 6.34910 | 13568 ft | 138 kts | 104° |
| 2026-05-06 20:06 | 59.90525 | 6.36811 | 13708 ft | 136 kts | 104° |
| 2026-05-06 20:06 | 59.90552 | 6.38693 | 13828 ft | 137 kts | 104° |
| 2026-05-06 20:07 | 59.90586 | 6.40583 | 13949 ft | 137 kts | 103° |
| 2026-05-06 20:07 | 59.90628 | 6.42485 | 14068 ft | 138 kts | 103° |
| 2026-05-06 20:07 | 59.90678 | 6.44412 | 14186 ft | 138 kts | 102° |
| 2026-05-06 20:07 | 59.90735 | 6.46313 | 14301 ft | 139 kts | 102° |
| 2026-05-06 20:08 | 59.90800 | 6.48238 | 14414 ft | 139 kts | 101° |
| 2026-05-06 20:08 | 59.91262 | 6.60906 | 15089 ft | 140 kts | 101° |
| 2026-05-06 20:08 | 59.91339 | 6.62867 | 15191 ft | 140 kts | 100° |
| 2026-05-06 20:08 | 59.91423 | 6.64799 | 15287 ft | 141 kts | 99° |
| 2026-05-06 20:09 | 59.91516 | 6.66745 | 15384 ft | 141 kts | 100° |
| 2026-05-06 20:09 | 59.91617 | 6.68707 | 15470 ft | 141 kts | 99° |
| 2026-05-06 20:09 | 59.91722 | 6.70587 | 15555 ft | 142 kts | 99° |
| 2026-05-06 20:09 | 59.91806 | 6.72024 | 15616 ft | 142 kts | 98° |
| 2026-05-06 20:10 | 59.91929 | 6.73985 | 15701 ft | 142 kts | 98° |
| 2026-05-06 20:10 | 59.92048 | 6.75940 | 15779 ft | 139 kts | 108° |
| 2026-05-06 20:10 | 59.91978 | 6.77778 | 15859 ft | 130 kts | 122° |
| 2026-05-06 20:10 | 59.91781 | 6.79446 | 15923 ft | 121 kts | 136° |
| 2026-05-06 20:11 | 59.91491 | 6.80998 | 16004 ft | 116 kts | 141° |